createdAt,value
2023-05-05T00:00:15.958Z,13.57
2023-05-05T00:02:44.169Z,13.10
2023-05-05T00:05:12.435Z,12.80
2023-05-05T00:07:40.427Z,12.90
2023-05-05T00:10:09.024Z,12.43
2023-05-05T00:12:37.362Z,12.53
2023-05-05T00:15:06.102Z,12.30
2023-05-05T00:17:35.605Z,12.90
2023-05-05T00:20:03.543Z,12.07
2023-05-05T00:22:31.475Z,11.67
2023-05-05T00:24:59.472Z,13.00
2023-05-05T00:27:27.424Z,12.27
2023-05-05T00:29:55.388Z,12.37
2023-05-05T00:32:23.515Z,13.03
2023-05-05T00:34:52.986Z,12.80
2023-05-05T00:37:21.003Z,12.50
2023-05-05T00:39:48.983Z,13.50
2023-05-05T00:42:16.944Z,12.70
2023-05-05T00:44:44.922Z,13.60
2023-05-05T00:47:14.398Z,14.87
2023-05-05T00:49:42.426Z,14.80
2023-05-05T00:52:12.471Z,12.80
2023-05-05T00:54:40.637Z,11.00
2023-05-05T00:57:08.878Z,9.37
2023-05-05T00:59:37.934Z,8.80
2023-05-05T01:02:05.964Z,8.57
2023-05-05T01:04:33.944Z,8.90
2023-05-05T01:07:14.833Z,8.43
2023-05-05T01:10:04.457Z,7.70
2023-05-05T01:12:47.555Z,5.93
2023-05-05T01:15:21.032Z,5.80
2023-05-05T01:17:56.069Z,4.70
2023-05-05T01:20:30.152Z,5.33
2023-05-05T01:23:00.519Z,6.33
2023-05-05T01:25:53.399Z,5.93
2023-05-05T01:28:35.837Z,4.97
2023-05-05T01:31:17.918Z,4.50
2023-05-05T01:33:50.616Z,4.03
2023-05-05T01:36:23.602Z,4.17
2023-05-05T01:38:56.821Z,3.17
2023-05-05T01:41:29.434Z,3.17
2023-05-05T01:44:00.906Z,3.50
2023-05-05T01:46:29.413Z,2.73
2023-05-05T01:49:00.174Z,3.10
2023-05-05T01:51:29.388Z,3.63
2023-05-05T01:54:00.994Z,4.40
2023-05-05T01:56:31.036Z,5.00
2023-05-05T01:59:02.949Z,6.17
2023-05-05T02:01:32.735Z,6.17
2023-05-05T02:04:04.346Z,7.27
2023-05-05T02:06:33.580Z,7.53
2023-05-05T02:09:03.400Z,8.60
2023-05-05T02:11:32.048Z,8.83
2023-05-05T02:14:02.301Z,9.93
2023-05-05T02:16:31.251Z,10.73
2023-05-05T02:19:04.684Z,11.53
2023-05-05T02:21:33.786Z,11.57
2023-05-05T02:24:02.331Z,11.23
2023-05-05T02:26:34.852Z,12.13
2023-05-05T02:29:07.331Z,12.00
2023-05-05T02:31:39.450Z,11.60
2023-05-05T02:34:09.812Z,12.47
2023-05-05T02:36:40.893Z,11.60
2023-05-05T02:39:14.270Z,10.77
2023-05-05T02:41:43.976Z,11.43
2023-05-05T02:44:15.039Z,9.80
2023-05-05T02:46:44.177Z,9.60
2023-05-05T02:49:13.535Z,9.70
2023-05-05T02:51:41.537Z,26.87
2023-05-05T02:54:09.593Z,25.90
2023-05-05T02:56:44.108Z,24.17
2023-05-05T02:59:17.123Z,24.47
2023-05-05T03:01:59.688Z,22.20
2023-05-05T03:04:39.348Z,22.97
2023-05-05T03:07:14.182Z,20.50
2023-05-05T03:09:47.133Z,21.33
2023-05-05T03:12:20.187Z,6.27
2023-05-05T03:14:49.632Z,5.87
2023-05-05T03:17:19.657Z,7.77
2023-05-05T03:19:49.550Z,6.70
2023-05-05T03:22:17.677Z,6.73
2023-05-05T03:24:51.060Z,7.13
2023-05-05T03:27:20.431Z,5.90
2023-05-05T03:29:48.434Z,5.50
2023-05-05T03:32:16.609Z,5.30
2023-05-05T03:34:44.578Z,6.37
2023-05-05T03:37:13.973Z,4.90
2023-05-05T03:39:41.916Z,6.10
2023-05-05T03:42:09.882Z,6.10
2023-05-05T03:44:38.006Z,4.83
2023-05-05T03:47:06.406Z,4.73
2023-05-05T03:49:34.392Z,4.40
2023-05-05T03:52:02.350Z,5.03
2023-05-05T03:54:31.879Z,6.37
2023-05-05T03:57:00.117Z,5.93
2023-05-05T03:59:28.408Z,5.70
2023-05-05T04:01:56.837Z,5.90
2023-05-05T04:04:24.983Z,6.10
2023-05-05T04:06:53.047Z,6.30
2023-05-05T04:09:21.019Z,6.40
2023-05-05T04:11:50.332Z,6.63
2023-05-05T04:14:18.390Z,7.50
2023-05-05T04:16:46.390Z,7.27
2023-05-05T04:19:14.373Z,7.67
2023-05-05T04:21:42.446Z,6.00
2023-05-05T04:24:10.467Z,5.57
2023-05-05T04:26:38.557Z,5.60
2023-05-05T04:29:09.460Z,4.60
2023-05-05T04:31:37.569Z,5.23
2023-05-05T04:34:05.620Z,5.87
2023-05-05T04:36:33.549Z,5.13
2023-05-05T04:39:01.561Z,5.43
2023-05-05T04:41:30.176Z,5.40
2023-05-05T04:43:58.240Z,5.87
2023-05-05T04:46:27.638Z,6.70
2023-05-05T04:48:55.626Z,6.17
2023-05-05T04:51:23.568Z,6.17
2023-05-05T04:53:52.003Z,7.10
2023-05-05T04:56:20.042Z,5.83
2023-05-05T04:58:48.015Z,5.93
2023-05-05T05:01:15.998Z,7.00
2023-05-05T05:03:45.982Z,6.23
2023-05-05T05:06:14.050Z,11.40
2023-05-05T05:08:42.386Z,8.60
2023-05-05T05:11:10.464Z,8.40
2023-05-05T05:13:38.575Z,7.33
2023-05-05T05:16:08.126Z,6.80
2023-05-05T05:18:36.277Z,7.20
2023-05-05T05:21:05.626Z,6.60
2023-05-05T05:23:33.655Z,6.53
2023-05-05T05:26:01.747Z,7.70
2023-05-05T05:28:29.820Z,12.10
2023-05-05T05:30:57.855Z,9.10
2023-05-05T05:33:25.866Z,9.13
2023-05-05T05:35:53.941Z,11.30
2023-05-05T05:38:23.279Z,14.50
2023-05-05T05:40:51.276Z,14.03
2023-05-05T05:43:19.215Z,14.30
2023-05-05T05:45:47.206Z,16.13
2023-05-05T05:48:15.159Z,19.23
2023-05-05T05:50:43.181Z,19.33
2023-05-05T05:53:11.156Z,20.43
2023-05-05T05:55:41.164Z,22.87
2023-05-05T05:58:09.100Z,21.37
2023-05-05T06:00:37.037Z,24.20
2023-05-05T06:03:05.487Z,24.13
2023-05-05T06:05:33.877Z,26.20
2023-05-05T06:08:01.846Z,25.53
2023-05-05T06:10:29.983Z,29.20
2023-05-05T06:12:59.679Z,24.93
2023-05-05T06:15:27.694Z,23.93
2023-05-05T06:17:55.779Z,23.97
2023-05-05T06:20:23.742Z,26.00
2023-05-05T06:22:51.689Z,21.70
2023-05-05T06:25:19.654Z,21.87
2023-05-05T06:27:47.611Z,22.73
2023-05-05T06:30:17.854Z,24.90
2023-05-05T06:32:45.848Z,23.10
2023-05-05T06:35:13.836Z,23.83
2023-05-05T06:37:41.839Z,24.40
2023-05-05T06:40:11.366Z,25.53
2023-05-05T06:42:39.362Z,25.83
2023-05-05T06:45:08.272Z,27.40
2023-05-05T06:47:38.167Z,30.93
2023-05-05T06:50:08.556Z,29.40
2023-05-05T06:52:36.772Z,25.57
2023-05-05T06:55:04.929Z,25.83
2023-05-05T06:57:32.883Z,28.07
2023-05-05T07:00:01.365Z,23.30
2023-05-05T07:02:29.407Z,23.77
2023-05-05T07:04:58.898Z,21.57
2023-05-05T07:07:27.018Z,21.80
2023-05-05T07:09:55.023Z,24.03
2023-05-05T07:12:23.179Z,25.73
2023-05-05T07:14:51.380Z,23.30
2023-05-05T07:17:19.852Z,26.50
2023-05-05T07:19:48.365Z,26.83
2023-05-05T07:22:17.949Z,30.90
2023-05-05T07:24:45.929Z,29.80
2023-05-05T07:27:14.022Z,30.07
2023-05-05T07:29:42.093Z,33.42
2023-05-05T07:32:10.089Z,31.83
2023-05-05T07:34:38.271Z,29.23
2023-05-05T07:37:06.376Z,26.50
2023-05-05T07:39:35.719Z,26.30
2023-05-05T07:42:03.690Z,25.25
2023-05-05T07:44:31.782Z,27.90
2023-05-05T07:46:59.893Z,27.00
2023-05-05T07:49:28.088Z,24.92
2023-05-05T07:51:56.073Z,29.80
2023-05-05T07:54:24.045Z,28.65
2023-05-05T07:56:53.420Z,28.15
2023-05-05T07:59:21.721Z,26.73
2023-05-05T08:01:49.802Z,25.20
2023-05-05T08:04:17.865Z,26.90
2023-05-05T08:06:45.865Z,25.85
2023-05-05T08:09:13.903Z,25.30
2023-05-05T08:11:41.876Z,26.02
2023-05-05T08:14:11.287Z,26.60
2023-05-05T08:16:39.249Z,29.83
2023-05-05T08:19:17.655Z,27.00
2023-05-05T08:21:49.484Z,30.58
2023-05-05T08:24:17.477Z,30.52
2023-05-05T08:26:45.542Z,31.65
2023-05-05T08:29:14.882Z,26.48
2023-05-05T08:31:42.921Z,26.83
2023-05-05T08:34:11.015Z,26.67
2023-05-05T08:36:38.977Z,31.55
2023-05-05T08:39:07.124Z,24.40
2023-05-05T08:41:35.496Z,26.73
2023-05-05T08:44:03.579Z,31.60
2023-05-05T08:46:33.200Z,24.00
2023-05-05T08:49:03.849Z,25.20
2023-05-05T08:51:38.342Z,28.58
2023-05-05T08:54:08.137Z,29.40
2023-05-05T08:56:41.980Z,27.33
2023-05-05T08:59:12.194Z,25.02
2023-05-05T09:01:43.060Z,41.55
2023-05-05T09:04:11.775Z,43.67
2023-05-05T09:06:39.830Z,48.85
2023-05-05T09:09:08.427Z,49.00
2023-05-05T09:11:37.471Z,45.22
2023-05-05T09:14:05.490Z,45.08
2023-05-05T09:16:33.699Z,45.13
2023-05-05T09:19:06.318Z,44.15
2023-05-05T09:21:34.338Z,45.17
2023-05-05T09:24:08.914Z,45.03
2023-05-05T09:26:38.660Z,45.17
2023-05-05T09:29:07.073Z,44.65
2023-05-05T09:31:37.007Z,47.28
2023-05-05T09:34:17.232Z,43.45
2023-05-05T09:36:47.913Z,45.55
2023-05-05T09:39:17.911Z,50.63
2023-05-05T09:41:46.077Z,48.97
2023-05-05T09:44:16.163Z,47.65
2023-05-05T09:46:52.371Z,49.33
2023-05-05T09:49:25.515Z,51.38
2023-05-05T09:51:54.175Z,51.40
2023-05-05T09:54:26.442Z,63.10
2023-05-05T09:56:54.797Z,58.85
2023-05-05T09:59:23.535Z,67.20
2023-05-05T10:01:52.422Z,46.63
2023-05-05T10:04:29.664Z,46.90
2023-05-05T10:06:59.217Z,45.33
2023-05-05T10:09:28.259Z,43.30
2023-05-05T10:11:58.319Z,25.95
2023-05-05T10:14:27.991Z,22.45
2023-05-05T10:16:56.949Z,22.95
2023-05-05T10:19:28.942Z,22.00
2023-05-05T10:22:08.278Z,21.05
2023-05-05T10:24:40.104Z,22.10
2023-05-05T10:27:16.414Z,22.40
2023-05-05T10:29:53.343Z,22.05
2023-05-05T10:32:47.300Z,21.80
2023-05-05T10:35:19.747Z,21.67
2023-05-05T10:37:48.483Z,22.15
2023-05-05T10:40:17.899Z,21.30
2023-05-05T10:42:46.578Z,27.60
2023-05-05T10:45:14.708Z,29.63
2023-05-05T10:47:44.410Z,25.35
2023-05-05T10:50:22.357Z,28.98
2023-05-05T10:52:59.230Z,27.58
2023-05-05T10:55:37.997Z,32.60
2023-05-05T10:58:06.293Z,36.45
2023-05-05T11:00:53.011Z,31.45
2023-05-05T11:03:22.513Z,45.10
2023-05-05T11:06:12.563Z,45.63
2023-05-05T11:08:42.014Z,53.38
2023-05-05T11:11:11.476Z,50.28
2023-05-05T11:13:40.915Z,49.80
2023-05-05T11:16:38.692Z,51.47
2023-05-05T11:19:46.757Z,50.28
2023-05-05T11:22:17.531Z,38.13
2023-05-05T11:24:45.760Z,39.55
2023-05-05T11:27:13.756Z,37.00
2023-05-05T11:30:07.662Z,39.28
2023-05-05T11:32:36.066Z,36.95
2023-05-05T11:35:04.236Z,42.10
2023-05-05T11:37:34.438Z,43.35
2023-05-05T11:40:11.142Z,33.50
2023-05-05T11:42:39.197Z,35.17
2023-05-05T11:45:21.692Z,30.27
2023-05-05T11:47:49.829Z,31.33
2023-05-05T11:50:20.204Z,22.55
2023-05-05T11:52:50.266Z,23.77
2023-05-05T11:55:23.212Z,25.40
2023-05-05T11:57:51.475Z,24.23
2023-05-05T12:00:20.147Z,22.98
2023-05-05T12:02:48.404Z,24.00
2023-05-05T12:05:21.956Z,24.35
2023-05-05T12:07:57.901Z,23.23
2023-05-05T12:10:26.060Z,23.10
2023-05-05T12:12:55.389Z,25.98
2023-05-05T12:15:32.337Z,25.42
2023-05-05T12:18:02.635Z,25.42
2023-05-05T12:20:32.886Z,29.58
2023-05-05T12:23:03.977Z,26.35
2023-05-05T12:25:39.304Z,31.58
2023-05-05T12:28:08.371Z,31.35
2023-05-05T12:30:36.626Z,29.85
2023-05-05T12:33:06.173Z,27.85
2023-05-05T12:35:34.961Z,26.55
2023-05-05T12:38:04.550Z,27.60
2023-05-05T12:40:46.565Z,28.05
2023-05-05T12:43:31.476Z,25.73
2023-05-05T12:46:03.982Z,24.30
2023-05-05T12:48:32.069Z,26.30
2023-05-05T12:51:17.331Z,27.55
2023-05-05T12:53:49.570Z,23.25
2023-05-05T12:56:34.604Z,22.20
2023-05-05T12:59:03.460Z,24.15
2023-05-05T13:01:32.123Z,27.63
2023-05-05T13:04:13.980Z,27.85
2023-05-05T13:06:43.115Z,26.55
2023-05-05T13:09:23.697Z,25.88
2023-05-05T13:11:52.657Z,24.85
2023-05-05T13:14:20.708Z,26.25
2023-05-05T13:16:48.729Z,22.98
2023-05-05T13:19:16.717Z,25.52
2023-05-05T13:21:44.700Z,25.70
2023-05-05T13:24:26.103Z,27.55
2023-05-05T13:26:59.474Z,26.73
2023-05-05T13:29:31.093Z,24.52
2023-05-05T13:31:59.965Z,28.35
2023-05-05T13:34:28.279Z,28.27
2023-05-05T13:36:56.227Z,29.45
2023-05-05T13:39:25.612Z,27.35
2023-05-05T13:41:53.565Z,26.80
2023-05-05T13:44:21.999Z,29.17
2023-05-05T13:46:50.154Z,29.33
2023-05-05T13:49:18.308Z,46.95
2023-05-05T13:51:47.136Z,57.63
2023-05-05T13:54:15.344Z,62.80
2023-05-05T13:56:44.819Z,73.43
2023-05-05T13:59:12.784Z,76.30
2023-05-05T14:01:40.808Z,65.80
2023-05-05T14:04:09.460Z,71.85
2023-05-05T14:06:37.499Z,68.43
2023-05-05T14:09:07.948Z,70.88
2023-05-05T14:11:36.026Z,67.50
2023-05-05T14:14:06.132Z,67.43
2023-05-05T14:16:34.333Z,68.80
2023-05-05T14:19:02.329Z,67.20
2023-05-05T14:21:30.273Z,68.22
2023-05-05T14:23:58.261Z,69.50
2023-05-05T14:26:27.285Z,71.55
2023-05-05T14:28:55.293Z,70.97
2023-05-05T14:31:24.843Z,29.25
2023-05-05T14:33:53.454Z,25.05
2023-05-05T14:36:21.429Z,27.48
2023-05-05T14:38:49.473Z,43.35
2023-05-05T14:41:17.436Z,28.05
2023-05-05T14:43:45.465Z,23.40
2023-05-05T14:46:13.583Z,21.98
2023-05-05T14:48:42.998Z,21.05
2023-05-05T14:51:11.005Z,18.65
2023-05-05T14:53:38.979Z,19.40
2023-05-05T14:56:08.015Z,21.70
2023-05-05T14:58:36.030Z,19.92
2023-05-05T15:01:04.926Z,19.25
2023-05-05T15:03:33.320Z,19.77
2023-05-05T15:06:03.029Z,21.45
2023-05-05T15:08:30.990Z,19.70
2023-05-05T15:10:58.962Z,19.80
2023-05-05T15:13:27.029Z,23.33
2023-05-05T15:15:55.104Z,20.25
2023-05-05T15:18:23.140Z,19.80
2023-05-05T15:20:51.173Z,20.00
2023-05-05T15:23:20.501Z,20.25
2023-05-05T15:25:48.449Z,29.23
2023-05-05T15:28:17.309Z,18.48
2023-05-05T15:30:45.283Z,19.10
2023-05-05T15:33:13.417Z,18.52
2023-05-05T15:35:41.368Z,19.38
2023-05-05T15:38:10.309Z,19.20
2023-05-05T15:40:39.630Z,16.98
2023-05-05T15:43:08.067Z,19.15
2023-05-05T15:45:36.318Z,18.70
2023-05-05T15:48:04.488Z,18.15
2023-05-05T15:50:32.573Z,18.90
2023-05-05T15:53:00.804Z,18.08
2023-05-05T15:55:29.109Z,19.27
2023-05-05T15:57:58.511Z,18.35
2023-05-05T16:00:26.777Z,20.13
2023-05-05T16:02:54.857Z,18.67
2023-05-05T16:05:23.275Z,20.13
2023-05-05T16:07:52.524Z,19.30
2023-05-05T16:10:20.945Z,18.90
2023-05-05T16:12:48.939Z,18.42
2023-05-05T16:15:18.433Z,19.50
2023-05-05T16:17:46.415Z,19.55
2023-05-05T16:20:14.485Z,18.90
2023-05-05T16:22:42.449Z,18.60
2023-05-05T16:25:11.172Z,18.17
2023-05-05T16:27:39.282Z,17.63
2023-05-05T16:30:08.833Z,18.50
2023-05-05T16:32:38.244Z,16.20
2023-05-05T16:35:07.704Z,18.52
2023-05-05T16:37:35.975Z,18.33
2023-05-05T16:40:05.481Z,19.02
2023-05-05T16:42:33.504Z,18.70
2023-05-05T16:45:01.499Z,18.10
2023-05-05T16:47:29.455Z,18.50
2023-05-05T16:49:59.087Z,18.80
2023-05-05T16:52:27.174Z,18.23
2023-05-05T16:54:56.611Z,18.63
2023-05-05T16:57:24.672Z,18.30
2023-05-05T16:59:55.757Z,18.60
2023-05-05T17:02:23.986Z,19.05
2023-05-05T17:04:52.047Z,18.52
2023-05-05T17:07:21.418Z,18.80
2023-05-05T17:09:49.492Z,18.25
2023-05-05T17:12:17.514Z,19.35
2023-05-05T17:14:46.052Z,18.75
2023-05-05T17:17:14.306Z,19.40
2023-05-05T17:19:42.684Z,19.38
2023-05-05T17:22:10.659Z,19.02
2023-05-05T17:24:40.051Z,19.00
2023-05-05T17:27:07.999Z,19.13
2023-05-05T17:29:40.468Z,19.65
2023-05-05T17:32:08.567Z,18.75
2023-05-05T17:34:36.733Z,18.90
2023-05-05T17:37:04.796Z,18.83
2023-05-05T17:39:32.744Z,19.88
2023-05-05T17:42:02.054Z,19.58
2023-05-05T17:44:31.503Z,19.65
2023-05-05T17:46:59.538Z,20.83
2023-05-05T17:49:27.490Z,18.85
2023-05-05T17:51:55.438Z,18.92
2023-05-05T17:54:23.373Z,18.90
2023-05-05T17:56:51.555Z,18.65
2023-05-05T17:59:20.869Z,18.38
2023-05-05T18:01:48.912Z,18.63
2023-05-05T18:04:17.590Z,18.63
2023-05-05T18:06:45.539Z,17.48
2023-05-05T18:09:13.768Z,32.30
2023-05-05T18:11:42.188Z,19.70
2023-05-05T18:14:10.802Z,19.40
2023-05-05T18:16:40.137Z,18.75
2023-05-05T18:19:08.129Z,18.65
2023-05-05T18:21:36.102Z,18.75
2023-05-05T18:24:15.872Z,18.80
2023-05-05T18:26:50.414Z,19.77
2023-05-05T18:29:18.800Z,19.00
2023-05-05T18:31:51.557Z,19.77
2023-05-05T18:34:20.559Z,19.83
2023-05-05T18:36:49.227Z,19.40
2023-05-05T18:39:17.793Z,20.65
2023-05-05T18:41:45.780Z,20.40
2023-05-05T18:44:13.777Z,20.48
2023-05-05T18:46:43.051Z,20.75
2023-05-05T18:49:12.494Z,20.58
2023-05-05T18:51:40.578Z,20.80
2023-05-05T18:54:08.644Z,20.02
2023-05-05T18:56:36.975Z,20.25
2023-05-05T18:59:05.273Z,21.40
2023-05-05T19:01:33.284Z,20.23
2023-05-05T19:04:01.426Z,20.25
2023-05-05T19:06:31.068Z,41.55
2023-05-05T19:08:59.195Z,43.17
2023-05-05T19:11:27.243Z,44.90
2023-05-05T19:13:55.357Z,43.33
2023-05-05T19:16:23.790Z,43.47
2023-05-05T19:18:51.782Z,41.40
2023-05-05T19:21:19.806Z,41.15
2023-05-05T19:23:49.109Z,20.42
2023-05-05T19:26:17.109Z,18.92
2023-05-05T19:28:45.282Z,18.15
2023-05-05T19:31:13.250Z,19.17
2023-05-05T19:33:45.069Z,19.35
2023-05-05T19:36:13.218Z,18.60
2023-05-05T19:38:44.323Z,17.63
2023-05-05T19:41:13.890Z,18.23
2023-05-05T19:43:41.868Z,19.50
2023-05-05T19:46:09.953Z,17.85
2023-05-05T19:48:37.996Z,18.90
2023-05-05T19:51:06.108Z,17.85
2023-05-05T19:53:34.153Z,18.60
2023-05-05T19:56:02.123Z,18.42
2023-05-05T19:58:31.466Z,18.98
2023-05-05T20:00:59.436Z,21.10
2023-05-05T20:03:27.595Z,19.63
2023-05-05T20:05:55.611Z,20.30
2023-05-05T20:08:23.570Z,20.02
2023-05-05T20:10:53.191Z,19.20
2023-05-05T20:13:21.365Z,20.50
2023-05-05T20:15:51.023Z,18.73
2023-05-05T20:18:19.020Z,17.25
2023-05-05T20:20:46.995Z,17.75
2023-05-05T20:23:15.185Z,18.42
2023-05-05T20:25:43.383Z,17.75
2023-05-05T20:28:11.360Z,19.67
2023-05-05T20:30:39.300Z,18.27
2023-05-05T20:33:08.675Z,18.23
2023-05-05T20:35:36.746Z,18.20
2023-05-05T20:38:04.915Z,18.08
2023-05-05T20:40:33.280Z,18.77
2023-05-05T20:43:01.302Z,18.00
2023-05-05T20:45:31.714Z,17.27
2023-05-05T20:48:00.782Z,18.55
2023-05-05T20:50:32.385Z,17.90
2023-05-05T20:53:00.558Z,17.92
2023-05-05T20:55:28.694Z,18.92
2023-05-05T20:57:56.711Z,18.30
2023-05-05T21:00:25.028Z,18.13
2023-05-05T21:02:53.428Z,17.83
2023-05-05T21:05:21.758Z,18.60
2023-05-05T21:07:51.109Z,17.73
2023-05-05T21:10:19.066Z,19.00
2023-05-05T21:12:47.171Z,18.38
2023-05-05T21:15:16.848Z,17.75
2023-05-05T21:17:45.010Z,18.85
2023-05-05T21:20:13.944Z,18.88
2023-05-05T21:22:42.050Z,17.60
2023-05-05T21:25:15.961Z,18.08
2023-05-05T21:27:44.127Z,17.92
2023-05-05T21:30:13.102Z,18.50
2023-05-05T21:32:41.594Z,17.67
2023-05-05T21:35:10.808Z,18.05
2023-05-05T21:37:39.974Z,18.67
2023-05-05T21:40:11.268Z,17.80
2023-05-05T21:42:40.827Z,19.05
2023-05-05T21:45:09.933Z,19.98
2023-05-05T21:47:38.032Z,19.23
2023-05-05T21:50:06.745Z,20.20
2023-05-05T21:52:34.819Z,19.10
2023-05-05T21:55:03.820Z,18.83
2023-05-05T21:57:31.815Z,20.20
2023-05-05T22:00:01.183Z,18.52
2023-05-05T22:02:29.221Z,19.95
2023-05-05T22:04:57.320Z,17.95
2023-05-05T22:07:25.979Z,18.30
2023-05-05T22:09:53.952Z,19.27
2023-05-05T22:12:22.067Z,19.52
2023-05-05T22:14:50.023Z,18.33
2023-05-05T22:17:19.332Z,17.90
2023-05-05T22:19:47.292Z,17.80
2023-05-05T22:22:16.498Z,18.95
2023-05-05T22:24:44.512Z,19.10
2023-05-05T22:27:12.472Z,19.05
2023-05-05T22:29:40.425Z,19.48
2023-05-05T22:32:08.571Z,19.15
2023-05-05T22:34:38.006Z,14.30
2023-05-05T22:37:06.086Z,9.82
2023-05-05T22:39:34.162Z,4.47
2023-05-05T22:42:02.437Z,3.40
2023-05-05T22:44:30.425Z,3.03
2023-05-05T22:46:58.612Z,2.50
2023-05-05T22:49:26.805Z,1.77
2023-05-05T22:51:57.212Z,1.27
2023-05-05T22:54:25.224Z,1.30
2023-05-05T22:56:53.224Z,2.95
2023-05-05T22:59:21.195Z,2.05
2023-05-05T23:01:49.160Z,2.15
2023-05-05T23:04:17.339Z,1.33
2023-05-05T23:06:45.435Z,1.00
2023-05-05T23:09:14.749Z,1.75
2023-05-05T23:11:42.682Z,1.05
2023-05-05T23:14:10.720Z,1.98
2023-05-05T23:16:38.697Z,0.80
2023-05-05T23:19:06.699Z,1.65
2023-05-05T23:21:41.834Z,0.65
2023-05-05T23:24:19.231Z,1.45
2023-05-05T23:26:47.279Z,1.65
2023-05-05T23:29:15.240Z,1.80
2023-05-05T23:31:43.216Z,0.90
2023-05-05T23:34:11.362Z,1.63
2023-05-05T23:36:39.436Z,2.10
2023-05-05T23:39:07.441Z,1.30
2023-05-05T23:41:36.780Z,1.75
2023-05-05T23:44:04.715Z,1.27
2023-05-05T23:46:32.757Z,1.73
2023-05-05T23:49:00.798Z,1.10
2023-05-05T23:51:28.738Z,0.88
2023-05-05T23:53:57.757Z,1.02
2023-05-05T23:56:26.248Z,1.05
2023-05-05T23:58:56.206Z,2.08
